AirNav   ATP
 
 930 users online  

2VA9 Airlie Airport
Warrenton, Virginia, USA

GOING TO WARRENTON?


FAA INFORMATION EFFECTIVE 01 FEBRUARY 2018

Location

FAA Identifier: 2VA9
Lat/Long: 38-45-28.4200N / 077-47-13.9750W
38-45.473667N / 077-47.232917W
38.7578944 / -77.7872153
(estimated)
Elevation: 522 ft. / 159.1 m (surveyed)
Variation: 09W (1985)
From city: 3 miles NE of WARRENTON, VA
Time zone: UTC -5 (UTC -4 during Daylight Saving Time)
Zip code: 20187

Airport Operations

Airport use: Private use. Permission required prior to landing
Activation date: 03/1972
Control tower: no
ARTCC: WASHINGTON CENTER
FSS: LEESBURG FLIGHT SERVICE STATION
Attendance: UNATNDD
Wind indicator: yes
Segmented circle: no
Lights: FOR RWY LGTS CALL 540-347-1300.

Airport Communications

WX AWOS-3 at HWY (11 nm S): 120.350 (540-788-4078)
WX AWOS-3PT at HEF (13 nm E): PHONE 703-361-6160
WX AWOS-3 at CJR (14 nm S): 119.325 (540-727-0523)
WX ASOS at IAD (19 nm NE): PHONE 703-661-2990

Nearby radio navigation aids

VOR radial/distance  VOR name  Freq  Var
CSNr034/7.9CASANOVA VORTAC116.3006W
AMLr243/18.4ARMEL VOR/DME113.5008W
LDNr112/20.4LINDEN VORTAC114.3006W
BRVr330/32.5BROOKE VORTAC114.5009W
DCAr269/35.6WASHINGTON VOR/DME111.0009W
MRBr183/37.8MARTINSBURG VORTAC112.1007W

 
NDB name  Hdg/Dist  Freq  Var  ID
GOODWIN LAKE178/11.922708WGDX --. -.. -..-
NAILR027/19.035110WMSQ -- ... --.-
DAVEE289/32.222309WDAA -.. .- .-
CAVERNS093/32.324509WLUA .-.. ..- .-
GEORGETOWN261/32.732309WGTN --. - -.
SHANNON342/33.523710WEZF . --.. ..-.
OXONN280/35.633211WDCA -.. -.-. .-

Airport Services

Runway Information

Runway 3/21

Dimensions: 3250 x 50 ft. / 991 x 15 m
Surface: asphalt
Runway edge lights: low intensity
RUNWAY 3  RUNWAY 21
Traffic pattern: rightleft
Displaced threshold: 400 ft.no
Obstructions: trees, 500 ft. from runwaytrees, 1000 ft. from runway

Airport Ownership and Management from official FAA records

Ownership: Privately-owned
Owner: AIRLIE FOUNDATION
6809 AIRLIE ROAD
WARRENTON, VA 20187
Phone 540-347-1300
Manager: K. CARTER
6809 AIRLIE ROAD
WARRENTON, VA 20187
Phone 540-347-1300

Instrument Procedures

There are no published instrument procedures at 2VA9.

Some nearby airports with instrument procedures:

KHWY - Warrenton-Fauquier Airport (11 nm S)
KHEF - Manassas Regional Airport/Harry P. Davis Field (13 nm E)
2VG2 - Upperville Airport (13 nm N)
KCJR - Culpeper Regional Airport (14 nm S)
KIAD - Washington Dulles International Airport (19 nm NE)
 
Loc | Ops | Rwys | IFR | FBO | Links
Com | Nav | Svcs | Stats | Notes

AirNav Hotels Sweepstakes
 
Area around 2VA9 (Airlie Airport)
 
Road maps at: MapQuest Bing Google
 
Aerial photo
No photo
 
Sectional chart

 
Airport distance calculator
Flying to Airlie Airport? Find the distance to fly.

From to 2VA9

Sunrise and sunset
Times for 21-Feb-2018
 Local
(UTC-5)
 Zulu
(UTC)
Morning civil twilight06:2911:29
Sunrise06:5611:56
Sunset17:5422:54
Evening civil twilight18:2123:21

Current date and time
Zulu (UTC)  22-Feb-2018 03:13:13
Local (UTC-5)  21-Feb-2018 22:13:13
 
METAR
KHWY 
11nm S 
220255Z AUTO 01003KT 10SM OVC080 20/16 A3035 RMK AO2 T01970160
KHEF 
13nm E 
220256Z 01005KT 10SM OVC080 18/17 A3036 RMK AO2 SLP291 6//// T01830167 51016 PNO $
KIAD 
19nm NE 
220252Z 32005KT 10SM BKN038 OVC050 19/17 A3036 RMK AO2 SLP280 60002 T01940167 53021
KJYO 
21nm NE 
220255Z AUTO 35007KT 10SM SCT036 BKN041 OVC085 20/16 A3037 RMK AO2
KCJR 
22nm SW 
220255Z AUTO 36007KT 10SM SCT060 OVC080 20/16 A3037 RMK AO2 T01960162
TAF
KIAD 
19nm NE 
212118Z 2121/2224 20012G23KT P6SM FEW045 FEW100 FM212300 22009KT P6SM SCT035 BKN110 FM220300 29005KT P6SM SCT025 OVC060 FM220600 01008KT 5SM -DZ BR SCT025 OVC030 FM220900 01008KT 5SM -RADZ BR SCT025 OVC030 FM221500 03007KT 1 1/2SM -RADZ BR BKN008 OVC030
NOTAMs
Click for the latest NOTAMs
NOTAMs are issued by the DoD/FAA and will open in a separate window not controlled by AirNav.

 

 
 

Would you like to see your business listed on this page?

 If your business provides an interesting product or service to pilots, flight crews, aircraft, or users of the Airlie Airport, you should consider listing it here.  To start the listing process, click on the button below
 
Add a business
 

Other Pages about Airlie Airport

www.airlie.com
 
Update a link
 
Copyright © AirNav, LLC. All rights reserved. Privacy Policy  Contact